Time;durP1;ratioP1;P1;durP2;ratioP2;P2;SDS_P1;SDS_P2;PMS_P1;PMS_P2;Temp;Humidity;BMP_temperature;BMP_pressure;BME280_temperature;BME280_humidity;BME280_pressure;Samples;Min_cycle;Max_cycle;Signal;HPM_P1;HPM_P2
2021/08/30 00:00:33;;;;;;;4.72;2.80;;;;;;;14.70;92.31;100440.16;20676718;28;20042;-80
2021/08/30 00:10:35;;;;;;;6.05;3.13;;;;;;;14.70;92.10;100433.09;20676688;28;20046;-80
2021/08/30 00:20:37;;;;;;;5.30;2.97;;;;;;;14.69;92.17;100430.53;20676436;28;20050;-81
2021/08/30 00:30:39;;;;;;;6.00;2.90;;;;;;;14.69;92.32;100420.84;20664902;28;20516;-79
2021/08/30 00:40:40;;;;;;;5.53;2.90;;;;;;;14.66;92.41;100423.59;20651538;28;20439;-81
2021/08/30 00:50:42;;;;;;;5.47;2.90;;;;;;;14.66;92.59;100418.31;20669662;28;20053;-82
2021/08/30 01:00:44;;;;;;;8.55;3.30;;;;;;;14.69;93.17;100419.97;20673351;28;20053;-80
2021/08/30 01:11:05;;;;;;;5.10;3.00;;;;;;;14.61;92.54;100415.84;20656459;28;20088;-81
2021/08/30 01:21:32;;;;;;;6.35;3.40;;;;;;;14.59;92.10;100409.72;20673213;28;20125;-80
2021/08/30 01:31:49;;;;;;;9.47;3.83;;;;;;;14.55;92.23;100410.72;20655389;28;20096;-81
2021/08/30 01:41:52;;;;;;;6.68;3.63;;;;;;;14.57;92.00;100408.94;20675293;28;20309;-81
2021/08/30 01:51:56;;;;;;;6.75;3.80;;;;;;;14.53;91.95;100409.94;20677191;28;20565;-81
2021/08/30 02:01:58;;;;;;;8.67;3.80;;;;;;;14.53;92.21;100412.56;20712342;28;20054;-80
2021/08/30 02:12:00;;;;;;;6.82;4.55;;;;;;;14.46;92.54;100407.50;20672285;28;20047;-81
2021/08/30 02:22:15;;;;;;;8.00;4.90;;;;;;;14.45;92.45;100397.88;20666718;28;20081;-81
2021/08/30 02:32:18;;;;;;;11.38;6.35;;;;;;;14.40;93.15;100395.38;20664700;28;20046;-80
2021/08/30 02:42:20;;;;;;;10.70;6.68;;;;;;;14.36;93.48;100405.16;20649448;28;20138;-80
2021/08/30 02:52:31;;;;;;;11.00;6.32;;;;;;;14.41;93.51;100398.88;20697298;28;20054;-81
2021/08/30 03:02:36;;;;;;;10.23;6.65;;;;;;;14.43;93.05;100384.75;20680194;28;20701;-80
2021/08/30 03:12:42;;;;;;;9.63;6.53;;;;;;;14.37;93.38;100379.66;20680307;28;20492;-80
2021/08/30 03:22:46;;;;;;;11.68;7.20;;;;;;;14.43;92.88;100381.28;20662620;28;20109;-81
2021/08/30 03:32:49;;;;;;;11.37;6.80;;;;;;;14.51;92.57;100384.53;20661250;28;20555;-81
2021/08/30 03:42:52;;;;;;;10.73;6.68;;;;;;;14.55;92.61;100389.66;20678765;28;20046;-81
2021/08/30 03:52:56;;;;;;;9.48;6.43;;;;;;;14.60;92.54;100387.72;20675137;28;20163;-80
2021/08/30 04:03:01;;;;;;;12.40;6.63;;;;;;;14.55;92.83;100383.53;20655475;28;20474;-80
2021/08/30 04:13:04;;;;;;;9.98;6.38;;;;;;;14.54;93.11;100387.09;20653847;28;20093;-80
2021/08/30 04:23:07;;;;;;;9.85;6.28;;;;;;;14.63;92.79;100382.38;20669787;28;20050;-80
2021/08/30 04:33:12;;;;;;;8.75;6.13;;;;;;;14.58;93.18;100386.94;20668126;28;20515;-80
2021/08/30 04:43:17;;;;;;;11.82;6.18;;;;;;;14.65;92.83;100394.63;20654433;28;20085;-81
2021/08/30 04:53:19;;;;;;;9.90;6.20;;;;;;;14.65;92.83;100394.63;20669128;28;20477;-81
2021/08/30 05:03:20;;;;;;;10.50;6.53;;;;;;;14.67;93.27;100400.72;20654935;28;20054;-80
2021/08/30 05:13:23;;;;;;;12.68;6.55;;;;;;;14.67;92.90;100408.63;20670800;28;20112;-81
2021/08/30 05:23:24;;;;;;;9.73;6.07;;;;;;;14.73;93.40;100413.69;20668942;28;20053;-80
2021/08/30 05:33:26;;;;;;;8.80;5.88;;;;;;;14.85;92.11;100421.19;20670037;28;20054;-80
2021/08/30 05:43:30;;;;;;;10.37;6.07;;;;;;;14.96;91.97;100432.25;20672895;28;20461;-82
2021/08/30 05:53:32;;;;;;;9.80;5.90;;;;;;;15.11;91.44;100425.59;20645866;28;20050;-82
2021/08/30 06:03:34;;;;;;;9.55;6.25;;;;;;;15.27;90.49;100437.34;20646303;28;20050;-81
2021/08/30 06:13:36;;;;;;;9.77;6.20;;;;;;;15.38;90.06;100434.38;20647082;28;20552;-83
2021/08/30 06:23:38;;;;;;;10.60;7.22;;;;;;;15.50;88.33;100427.78;20681500;28;20566;-84
2021/08/30 06:33:40;;;;;;;11.82;7.00;;;;;;;15.74;87.16;100426.06;20694010;28;20638;-81
2021/08/30 06:43:42;;;;;;;12.18;7.00;;;;;;;15.72;87.19;100434.03;20696049;28;20457;-84
2021/08/30 06:53:44;;;;;;;13.43;7.50;;;;;;;15.84;87.38;100435.38;20676689;28;20100;-84
2021/08/30 07:03:48;;;;;;;12.15;7.63;;;;;;;16.03;86.38;100433.75;20688188;28;20102;-83
2021/08/30 07:13:49;;;;;;;10.70;6.97;;;;;;;16.29;86.90;100434.53;20721004;28;20042;-83
2021/08/30 07:23:51;;;;;;;9.55;6.20;;;;;;;16.42;85.86;100438.44;20660268;28;20042;-82
2021/08/30 07:33:53;;;;;;;14.15;6.60;;;;;;;16.51;85.43;100440.72;20677616;28;20424;-82
2021/08/30 07:43:57;;;;;;;10.20;6.30;;;;;;;16.70;84.70;100446.13;20657999;28;20046;-83
2021/08/30 07:54:00;;;;;;;9.83;6.60;;;;;;;16.86;82.83;100455.22;20657036;28;20046;-82
2021/08/30 08:04:02;;;;;;;10.20;7.00;;;;;;;16.84;80.87;100464.97;20656523;28;20050;-83
2021/08/30 08:14:04;;;;;;;12.40;7.43;;;;;;;17.21;80.30;100474.06;20656568;28;20042;-83
2021/08/30 08:24:06;;;;;;;14.60;7.45;;;;;;;17.18;78.01;100480.31;20674033;28;20050;-83
2021/08/30 08:34:08;;;;;;;12.63;7.55;;;;;;;17.26;77.83;100481.81;20652309;28;20050;-83
2021/08/30 08:44:10;;;;;;;11.48;7.35;;;;;;;17.59;76.16;100485.66;20668747;28;20047;-82
2021/08/30 08:54:13;;;;;;;11.18;7.45;;;;;;;17.86;75.38;100488.03;20651805;28;20054;-83
2021/08/30 09:04:14;;;;;;;12.82;7.38;;;;;;;17.91;74.18;100491.34;20648733;28;20104;-82
2021/08/30 09:14:21;;;;;;;16.15;8.82;;;;;;;18.35;72.87;100489.34;20649894;28;20461;-82
2021/08/30 09:24:26;;;;;;;14.85;8.88;;;;;;;18.50;72.03;100495.72;20666910;28;20047;-83
2021/08/30 09:34:37;;;;;;;12.27;8.00;;;;;;;18.42;70.61;100481.94;20648482;28;20108;-81
2021/08/30 09:44:38;;;;;;;10.52;7.57;;;;;;;18.64;69.55;100490.63;20647620;28;20341;-82
2021/08/30 09:54:40;;;;;;;12.70;8.57;;;;;;;18.96;68.20;100478.47;20673288;28;20105;-82
2021/08/30 10:04:44;;;;;;;13.23;8.68;;;;;;;19.03;67.85;100479.03;20681029;28;20050;-82
2021/08/30 10:14:51;;;;;;;13.80;7.90;;;;;;;18.91;68.38;100492.88;20663983;28;20059;-82
2021/08/30 10:24:53;;;;;;;11.73;7.75;;;;;;;18.84;67.90;100495.00;20668278;28;20058;-81
2021/08/30 10:34:55;;;;;;;14.65;8.40;;;;;;;19.06;67.91;100500.09;20664606;28;20046;-81
2021/08/30 10:45:04;;;;;;;12.48;7.97;;;;;;;18.77;68.05;100508.63;20681721;28;20101;-83
2021/08/30 10:55:17;;;;;;;12.32;8.18;;;;;;;18.75;67.48;100502.53;20664698;28;20485;-81
2021/08/30 11:05:29;;;;;;;13.35;8.20;;;;;;;18.69;68.18;100512.50;20647518;28;20050;-83
2021/08/30 11:15:34;;;;;;;12.85;8.15;;;;;;;18.73;67.88;100509.69;20653041;28;20393;-83
2021/08/30 11:25:36;;;;;;;11.85;8.07;;;;;;;18.99;67.52;100514.63;20687604;28;20105;-83
2021/08/30 11:35:47;;;;;;;12.57;7.78;;;;;;;19.35;66.11;100511.91;20673874;28;20065;-83
2021/08/30 11:45:56;;;;;;;11.65;8.38;;;;;;;19.67;64.41;100507.66;20656531;28;20050;-84
2021/08/30 11:55:58;;;;;;;11.02;7.47;;;;;;;19.54;65.88;100503.88;20676726;28;20082;-83
2021/08/30 12:06:00;;;;;;;11.80;7.68;;;;;;;19.63;64.92;100510.56;20626249;28;20102;-80
2021/08/30 12:16:03;;;;;;;11.30;7.82;;;;;;;19.03;69.08;100521.50;20600773;28;20077;-84
2021/08/30 12:26:08;;;;;;;13.50;9.60;;;;;;;18.48;78.98;100524.06;20578450;28;20505;-84
2021/08/30 12:36:11;;;;;;;15.20;10.63;;;;;;;18.25;80.49;100532.22;20576090;28;20063;-84
2021/08/30 12:46:13;;;;;;;13.68;9.50;;;;;;;17.96;78.75;100539.69;20593833;28;20074;-82
2021/08/30 12:56:15;;;;;;;14.68;9.40;;;;;;;17.90;78.69;100551.41;20595114;28;20051;-85
2021/08/30 13:06:17;;;;;;;13.43;9.70;;;;;;;18.23;80.05;100537.59;20577496;28;20422;-85
2021/08/30 13:16:20;;;;;;;11.32;6.93;;;;;;;18.20;73.33;100543.03;20576537;28;20441;-84
2021/08/30 13:26:22;;;;;;;10.38;7.07;;;;;;;18.39;71.96;100540.41;20574917;28;20133;-84
2021/08/30 13:36:24;;;;;;;11.82;8.43;;;;;;;18.07;76.37;100555.97;20577636;28;20113;-84
2021/08/30 13:46:26;;;;;;;12.02;8.52;;;;;;;17.97;77.07;100544.06;20590484;28;20043;-84
2021/08/30 13:56:27;;;;;;;12.63;9.55;;;;;;;18.51;75.44;100550.47;20585572;28;20110;-84
2021/08/30 14:06:29;;;;;;;12.23;7.55;;;;;;;18.54;72.14;100545.03;20580728;28;20143;-85
2021/08/30 14:16:40;;;;;;;14.05;7.95;;;;;;;18.36;73.26;100545.88;20582008;28;20055;-84
2021/08/30 14:26:42;;;;;;;12.43;7.70;;;;;;;18.98;71.21;100550.06;20649406;28;20468;-85
2021/08/30 14:36:43;;;;;;;10.05;7.63;;;;;;;19.11;69.91;100559.13;20634697;28;20073;-84
2021/08/30 14:46:47;;;;;;;13.90;8.13;;;;;;;18.96;70.37;100565.16;20636155;28;20050;-82
2021/08/30 14:56:50;;;;;;;9.27;6.37;;;;;;;16.57;82.30;100595.56;20622126;28;20050;-83
2021/08/30 15:06:55;;;;;;;10.52;7.07;;;;;;;16.12;85.28;100607.75;20600250;28;20529;-83
2021/08/30 15:16:57;;;;;;;13.05;8.05;;;;;;;16.09;88.41;100613.13;20594477;28;20055;-84
2021/08/30 15:26:58;;;;;;;12.50;8.45;;;;;;;16.14;89.69;100608.59;20595298;28;20446;-83
2021/08/30 15:37:00;;;;;;;14.18;9.68;;;;;;;16.34;88.48;100607.00;20594297;28;20050;-84
2021/08/30 15:47:03;;;;;;;15.10;9.93;;;;;;;16.34;88.68;100622.88;20590639;28;20093;-84
2021/08/30 15:57:05;;;;;;;15.35;10.57;;;;;;;16.43;89.83;100606.63;20608378;28;20051;-84
2021/08/30 16:07:07;;;;;;;14.63;9.45;;;;;;;16.60;88.90;100604.25;20657351;28;20058;-83
2021/08/30 16:17:08;;;;;;;14.68;9.85;;;;;;;16.80;87.68;100610.59;20672309;28;20046;-84
2021/08/30 16:27:10;;;;;;;16.02;10.82;;;;;;;16.86;87.56;100605.97;20667719;28;20050;-84
2021/08/30 16:37:13;;;;;;;14.90;10.43;;;;;;;16.90;88.69;100615.47;20669855;28;20054;-84
2021/08/30 16:47:17;;;;;;;13.90;9.85;;;;;;;17.02;88.26;100615.94;20685702;28;20073;-84
2021/08/30 16:57:20;;;;;;;14.30;10.17;;;;;;;17.10;89.49;100614.72;20689379;28;20105;-85
2021/08/30 17:07:23;;;;;;;15.75;10.20;;;;;;;17.00;88.96;100613.34;20700348;28;20042;-84
2021/08/30 17:17:26;;;;;;;;;;;;;;;16.95;88.83;100628.53;20680723;28;20126;-83
2021/08/30 17:27:28;;;;;;;14.73;9.55;;;;;;;16.82;89.31;100619.34;20682469;28;19922;-84
2021/08/30 17:37:30;;;;;;;14.73;10.75;;;;;;;16.85;89.58;100608.63;20673257;28;20108;-83
2021/08/30 17:47:32;;;;;;;14.57;10.23;;;;;;;16.78;89.70;100618.59;20678005;28;20050;-83
2021/08/30 17:57:36;;;;;;;14.43;10.60;;;;;;;16.64;90.11;100626.16;20663348;28;20134;-82
2021/08/30 18:07:38;;;;;;;16.13;10.93;;;;;;;16.57;90.47;100636.06;20658371;28;20050;-83
2021/08/30 18:17:41;;;;;;;18.67;12.48;;;;;;;16.54;91.10;100646.78;20679846;28;20702;-84
2021/08/30 18:27:46;;;;;;;17.05;11.27;;;;;;;16.44;90.84;100655.97;20681227;28;20415;-82
2021/08/30 18:37:51;;;;;;;;;;;;;;;16.38;91.93;100664.09;20678103;28;20046;-82
2021/08/30 18:47:54;;;;;;;19.90;12.65;;;;;;;16.30;92.16;100676.72;20698954;28;19932;-81
2021/08/30 18:57:55;;;;;;;15.93;11.60;;;;;;;16.21;92.55;100684.97;20674531;28;20046;-81
2021/08/30 19:07:58;;;;;;;17.80;11.70;;;;;;;16.10;92.16;100702.06;20668487;28;20046;-82
2021/08/30 19:17:59;;;;;;;15.32;10.32;;;;;;;15.95;92.54;100706.97;20669349;28;20049;-82
2021/08/30 19:28:01;;;;;;;17.90;11.65;;;;;;;15.77;92.73;100711.09;20706405;28;20092;-83
2021/08/30 19:38:03;;;;;;;15.18;10.85;;;;;;;15.69;93.12;100713.09;20664813;28;20042;-81
2021/08/30 19:48:06;;;;;;;15.00;10.40;;;;;;;15.54;92.41;100715.28;20664688;28;20050;-81
2021/08/30 19:58:08;;;;;;;15.75;11.13;;;;;;;15.47;92.81;100719.00;20661856;28;20053;-81
2021/08/30 20:08:09;;;;;;;16.23;11.52;;;;;;;15.44;92.59;100726.16;20659065;28;20070;-80
2021/08/30 20:18:11;;;;;;;14.05;10.13;;;;;;;15.50;92.96;100724.19;20678354;28;20077;-81
2021/08/30 20:28:13;;;;;;;16.25;10.73;;;;;;;15.50;92.57;100728.63;20680493;28;20050;-81
2021/08/30 20:38:15;;;;;;;16.48;11.10;;;;;;;15.48;92.41;100736.59;20677372;28;20475;-81
2021/08/30 20:48:17;;;;;;;19.88;12.40;;;;;;;15.54;91.85;100732.91;20680369;28;20054;-80
2021/08/30 20:58:19;;;;;;;17.30;11.82;;;;;;;15.56;92.38;100739.84;20662464;28;20536;-83
2021/08/30 21:08:21;;;;;;;16.67;10.98;;;;;;;15.61;92.06;100732.63;20679522;28;20065;-81
2021/08/30 21:18:23;;;;;;;16.13;10.52;;;;;;;15.61;91.53;100737.06;20663252;28;21368;-81
2021/08/30 21:28:25;;;;;;;16.00;10.43;;;;;;;15.67;91.79;100739.56;20664707;28;20106;-81
2021/08/30 21:38:26;;;;;;;17.75;11.35;;;;;;;15.56;92.82;100734.56;20683543;28;20046;-81
2021/08/30 21:48:28;;;;;;;15.57;10.77;;;;;;;15.49;92.87;100743.59;20691724;28;20043;-82
2021/08/30 21:58:30;;;;;;;18.90;12.15;;;;;;;15.46;93.16;100742.81;20714532;28;20073;-82
2021/08/30 22:08:32;;;;;;;16.58;11.07;;;;;;;15.39;93.15;100737.72;20667021;28;20047;-82
2021/08/30 22:18:34;;;;;;;16.75;11.57;;;;;;;15.43;92.96;100737.59;20661459;28;20096;-81
2021/08/30 22:28:39;;;;;;;15.73;11.20;;;;;;;15.42;92.99;100736.75;20664439;28;20043;-81
2021/08/30 22:38:41;;;;;;;15.80;11.25;;;;;;;15.38;93.23;100745.69;20666133;28;20483;-81
2021/08/30 22:48:42;;;;;;;16.45;11.50;;;;;;;15.39;93.96;100760.63;20662892;28;20097;-80
2021/08/30 22:58:44;;;;;;;21.60;12.65;;;;;;;15.39;93.95;100769.38;20668821;28;20500;-81
2021/08/30 23:08:48;;;;;;;18.33;12.18;;;;;;;15.44;93.70;100761.34;20688415;28;20050;-80
2021/08/30 23:18:50;;;;;;;16.20;11.73;;;;;;;15.33;93.39;100773.97;20611429;28;20051;-81
2021/08/30 23:28:51;;;;;;;17.92;11.63;;;;;;;15.26;94.57;100777.69;20674984;28;20104;-80
2021/08/30 23:38:53;;;;;;;18.92;12.95;;;;;;;15.27;94.32;100784.69;20673048;28;20050;-80
2021/08/30 23:48:58;;;;;;;23.48;15.07;;;;;;;15.31;94.38;100787.22;20679113;28;20050;-81
2021/08/30 23:59:00;;;;;;;16.23;12.05;;;;;;;15.30;94.36;100795.19;20696144;28;20043;-80
